createdAt,value
2018-12-14T13:31:00.926Z,100953.67
2018-12-14T13:36:09.083Z,100948.73
2018-12-14T13:41:15.469Z,100954.61
2018-12-14T13:46:20.215Z,100951.81
2018-12-14T13:51:27.492Z,100943.73
2018-12-14T13:56:34.368Z,100949.45
2018-12-14T14:01:44.568Z,100948.70
2018-12-14T14:06:58.718Z,100953.77
2018-12-14T14:12:09.496Z,100952.33
2018-12-14T14:17:20.608Z,100955.74
2018-12-14T14:22:26.094Z,100955.96
2018-12-14T14:27:31.470Z,100962.94
2018-12-14T14:32:36.024Z,100977.67
2018-12-14T14:37:45.756Z,100980.29
2018-12-14T14:42:50.592Z,100983.95
2018-12-14T14:47:57.761Z,100986.14
2018-12-14T14:53:06.147Z,100991.30
2018-12-14T14:58:15.361Z,100999.06
2018-12-14T15:03:19.635Z,100995.05
2018-12-14T15:08:25.704Z,101004.83
2018-12-14T15:13:31.158Z,101012.29
2018-12-14T15:18:35.700Z,101008.75
2018-12-14T15:23:46.554Z,101017.74
2018-12-14T15:28:52.349Z,101018.28
2018-12-14T15:33:57.338Z,101025.34
2018-12-14T15:39:03.360Z,101035.60
2018-12-14T15:44:10.556Z,101042.59
2018-12-14T15:49:16.896Z,101044.23
2018-12-14T15:54:23.246Z,101051.37
2018-12-14T15:59:31.508Z,101061.97
2018-12-14T16:10:00.678Z,101066.14
2018-12-14T16:15:08.071Z,101073.37
2018-12-14T16:20:12.632Z,101068.24
2018-12-14T16:25:17.039Z,101072.08
2018-12-14T16:30:21.562Z,101073.69
2018-12-14T16:35:26.214Z,101077.13
2018-12-14T16:40:39.341Z,101089.42
2018-12-14T16:45:50.676Z,101089.53
2018-12-14T16:50:56.588Z,101088.86
2018-12-14T16:56:00.967Z,101081.67
2018-12-14T17:01:05.481Z,101077.05
2018-12-14T17:06:10.605Z,101087.75
2018-12-14T17:11:14.940Z,101082.20
2018-12-14T17:16:19.171Z,101079.08
2018-12-14T17:21:25.488Z,101089.88
2018-12-14T17:26:31.643Z,101094.48
2018-12-14T17:31:37.592Z,101084.92
2018-12-14T17:36:44.781Z,101078.16
2018-12-14T17:41:54.985Z,101079.39
2018-12-14T17:47:00.005Z,101086.83
2018-12-14T17:52:05.456Z,101086.45
2018-12-14T17:57:12.262Z,101095.52
2018-12-14T18:02:16.690Z,101096.98
2018-12-14T18:07:20.983Z,101104.06
2018-12-14T18:12:25.689Z,101095.68
2018-12-14T18:17:30.074Z,101099.23
2018-12-14T18:22:35.764Z,101097.42
2018-12-14T18:27:40.446Z,101099.04
2018-12-14T18:32:44.760Z,101108.98
2018-12-14T18:37:49.218Z,101102.76
2018-12-14T18:42:54.099Z,101108.41
2018-12-14T18:47:58.419Z,101114.12
2018-12-14T18:53:06.720Z,101122.59
2018-12-14T18:58:11.513Z,101131.25
2018-12-14T19:03:15.704Z,101132.16
2018-12-14T19:08:20.392Z,101134.38
2018-12-14T19:13:25.970Z,101140.33
2018-12-14T19:18:34.384Z,101147.46
2018-12-14T19:23:39.213Z,101151.92
2018-12-14T19:28:44.024Z,101155.96
2018-12-14T19:33:48.402Z,101165.02
2018-12-14T19:38:52.873Z,101162.49
2018-12-14T19:43:57.219Z,101157.86
2018-12-14T19:49:01.410Z,101174.20
2018-12-14T19:54:08.531Z,101169.45
2018-12-14T19:59:15.786Z,101174.69
2018-12-14T20:04:23.071Z,101174.30
2018-12-14T20:09:31.655Z,101178.33
2018-12-14T20:14:39.981Z,101181.96
2018-12-14T20:19:53.223Z,101189.20
2018-12-14T20:24:57.711Z,101185.67
2018-12-14T20:30:01.964Z,101191.44
2018-12-14T20:35:06.911Z,101186.89
2018-12-14T20:40:11.253Z,101188.89
2018-12-14T20:45:15.543Z,101191.52
2018-12-14T20:50:24.260Z,101184.16
2018-12-14T20:55:28.658Z,101192.55
2018-12-14T21:00:33.023Z,101195.55
2018-12-14T21:05:37.387Z,101193.34
2018-12-14T21:11:04.793Z,101194.86
2018-12-14T21:16:11.429Z,101198.27
2018-12-14T21:21:19.184Z,101195.55
2018-12-14T21:26:23.805Z,101192.72
2018-12-14T21:31:28.365Z,101192.63
2018-12-14T21:36:33.817Z,101196.45
2018-12-14T21:41:38.059Z,101201.47
2018-12-14T21:46:42.395Z,101191.52
2018-12-14T21:51:46.839Z,101189.62
2018-12-14T21:56:52.017Z,101191.72
2018-12-14T22:01:57.220Z,101189.72
2018-12-14T22:07:02.253Z,101189.62
2018-12-14T22:12:08.827Z,101193.44
2018-12-14T22:17:13.601Z,101193.23
2018-12-14T22:22:17.800Z,101194.75
2018-12-14T22:27:22.038Z,101184.27
2018-12-14T22:32:26.349Z,101190.30
2018-12-14T22:37:30.455Z,101192.82
2018-12-14T22:42:34.696Z,101184.59
2018-12-14T22:47:38.927Z,101193.92
2018-12-14T22:52:43.199Z,101194.95
2018-12-14T22:57:47.453Z,101201.09
2018-12-14T23:02:51.807Z,101192.92
2018-12-14T23:07:56.353Z,101197.17
2018-12-14T23:13:01.468Z,101206.13
2018-12-14T23:18:05.727Z,101206.02
2018-12-14T23:23:10.043Z,101206.95
2018-12-14T23:28:14.413Z,101204.51
2018-12-14T23:33:18.745Z,101205.92
2018-12-14T23:38:23.745Z,101218.92
2018-12-14T23:43:28.001Z,101210.67
2018-12-14T23:48:32.178Z,101216.70
2018-12-14T23:53:39.526Z,101213.37
2018-12-14T23:58:43.774Z,101204.61
